EFKK/KOK METAR and TAF weather

Enter ICAO airport designator
Station Type Date Time Source
EFKK METAR 2021/01/22 06:50 UTC NOAA

EFKK 220650Z AUTO 12012KT 9999 OVC007 M06/M08 Q0992


Station Type Date Time Source
EFKK Decoded METAR 2021/01/22 06:50 UTC NOAA

Kruunupyy, Finland (EFKK) 63-43N 023-09E
Jan 22, 2021 - 01:50 AM EST / 2021.01.22 0650 UTC
Wind: from the ESE (120 degrees) at 14 MPH (12 KT):0
Visibility: greater than 7 mile(s):0
Sky conditions: overcast
Temperature: 21 F (-6 C)
Windchill: 8 F (-13 C):1
Dew Point: 17 F (-8 C)
Relative Humidity: 85%
Pressure (altimeter): 29.29 in. Hg (0992 hPa)
ob: EFKK 220650Z AUTO 12012KT 9999 OVC007 M06/M08 Q0992
cycle: 7

Station Type Date Time Source
EFKK TAF 2019/04/22 21:42 UTC NOAA

TAF EFKK 222023Z 2221/2321 18006KT CAVOK

Example: see airport list